sensor_id;sensor_type;location;lat;lon;timestamp;P1;durP1;ratioP1;P2;durP2;ratioP2
3967;SDS011;9221;42.646;23.380;2023-06-22T00:00:46;16.47;;;7.03;;
3967;SDS011;9221;42.646;23.380;2023-06-22T00:03:12;15.40;;;7.07;;
3967;SDS011;9221;42.646;23.380;2023-06-22T00:05:37;10.87;;;6.13;;
3967;SDS011;9221;42.646;23.380;2023-06-22T00:08:03;11.17;;;6.40;;
3967;SDS011;9221;42.646;23.380;2023-06-22T00:10:32;12.47;;;6.63;;
3967;SDS011;9221;42.646;23.380;2023-06-22T00:12:57;13.43;;;7.60;;
3967;SDS011;9221;42.646;23.380;2023-06-22T00:15:23;11.30;;;6.83;;
3967;SDS011;9221;42.646;23.380;2023-06-22T00:17:49;15.93;;;6.70;;
3967;SDS011;9221;42.646;23.380;2023-06-22T00:20:14;18.83;;;7.40;;
3967;SDS011;9221;42.646;23.380;2023-06-22T00:22:41;13.50;;;7.30;;
3967;SDS011;9221;42.646;23.380;2023-06-22T00:25:08;13.30;;;7.20;;
3967;SDS011;9221;42.646;23.380;2023-06-22T00:27:34;11.90;;;6.70;;
3967;SDS011;9221;42.646;23.380;2023-06-22T00:30:00;15.97;;;7.03;;
3967;SDS011;9221;42.646;23.380;2023-06-22T00:32:25;14.70;;;6.50;;
3967;SDS011;9221;42.646;23.380;2023-06-22T00:34:51;11.03;;;6.33;;
3967;SDS011;9221;42.646;23.380;2023-06-22T00:37:17;12.73;;;6.30;;
3967;SDS011;9221;42.646;23.380;2023-06-22T00:39:43;10.53;;;5.90;;
3967;SDS011;9221;42.646;23.380;2023-06-22T00:42:08;9.57;;;6.00;;
3967;SDS011;9221;42.646;23.380;2023-06-22T00:44:34;13.23;;;6.27;;
3967;SDS011;9221;42.646;23.380;2023-06-22T00:47:00;10.03;;;5.57;;
3967;SDS011;9221;42.646;23.380;2023-06-22T00:49:26;12.40;;;5.57;;
3967;SDS011;9221;42.646;23.380;2023-06-22T00:51:52;7.60;;;5.00;;
3967;SDS011;9221;42.646;23.380;2023-06-22T00:54:17;11.93;;;5.90;;
3967;SDS011;9221;42.646;23.380;2023-06-22T00:56:49;10.67;;;5.87;;
3967;SDS011;9221;42.646;23.380;2023-06-22T00:59:17;9.83;;;5.70;;
3967;SDS011;9221;42.646;23.380;2023-06-22T01:01:43;9.60;;;5.30;;
3967;SDS011;9221;42.646;23.380;2023-06-22T01:04:09;9.30;;;5.50;;
3967;SDS011;9221;42.646;23.380;2023-06-22T01:06:38;11.20;;;6.07;;
3967;SDS011;9221;42.646;23.380;2023-06-22T01:09:15;11.90;;;5.80;;
3967;SDS011;9221;42.646;23.380;2023-06-22T01:11:45;9.00;;;5.77;;
3967;SDS011;9221;42.646;23.380;2023-06-22T01:14:19;14.17;;;6.17;;
3967;SDS011;9221;42.646;23.380;2023-06-22T01:16:56;13.23;;;6.23;;
3967;SDS011;9221;42.646;23.380;2023-06-22T01:19:44;9.50;;;5.70;;
3967;SDS011;9221;42.646;23.380;2023-06-22T01:22:24;10.23;;;5.63;;
3967;SDS011;9221;42.646;23.380;2023-06-22T01:30:22;13.50;;;6.50;;
3967;SDS011;9221;42.646;23.380;2023-06-22T01:32:51;9.33;;;5.30;;
3967;SDS011;9221;42.646;23.380;2023-06-22T01:35:19;13.87;;;6.27;;
3967;SDS011;9221;42.646;23.380;2023-06-22T01:37:46;11.13;;;6.30;;
3967;SDS011;9221;42.646;23.380;2023-06-22T01:40:12;16.03;;;6.50;;
3967;SDS011;9221;42.646;23.380;2023-06-22T01:42:38;9.00;;;5.33;;
3967;SDS011;9221;42.646;23.380;2023-06-22T01:45:04;9.13;;;6.00;;
3967;SDS011;9221;42.646;23.380;2023-06-22T01:47:31;12.10;;;6.10;;
3967;SDS011;9221;42.646;23.380;2023-06-22T01:49:58;11.83;;;6.00;;
3967;SDS011;9221;42.646;23.380;2023-06-22T01:52:24;13.83;;;6.50;;
3967;SDS011;9221;42.646;23.380;2023-06-22T01:54:49;11.43;;;6.07;;
3967;SDS011;9221;42.646;23.380;2023-06-22T01:57:15;16.10;;;6.67;;
3967;SDS011;9221;42.646;23.380;2023-06-22T01:59:47;10.30;;;6.47;;
3967;SDS011;9221;42.646;23.380;2023-06-22T02:02:19;12.57;;;6.87;;
3967;SDS011;9221;42.646;23.380;2023-06-22T02:04:52;15.33;;;6.30;;
3967;SDS011;9221;42.646;23.380;2023-06-22T02:07:23;10.07;;;6.17;;
3967;SDS011;9221;42.646;23.380;2023-06-22T02:09:49;15.13;;;6.33;;
3967;SDS011;9221;42.646;23.380;2023-06-22T02:12:18;14.77;;;6.87;;
3967;SDS011;9221;42.646;23.380;2023-06-22T02:14:46;10.63;;;6.40;;
3967;SDS011;9221;42.646;23.380;2023-06-22T02:17:13;13.40;;;6.80;;
3967;SDS011;9221;42.646;23.380;2023-06-22T02:19:41;10.40;;;6.27;;
3967;SDS011;9221;42.646;23.380;2023-06-22T02:22:06;10.80;;;5.90;;
3967;SDS011;9221;42.646;23.380;2023-06-22T02:24:32;12.87;;;6.30;;
3967;SDS011;9221;42.646;23.380;2023-06-22T02:26:58;11.33;;;6.97;;
3967;SDS011;9221;42.646;23.380;2023-06-22T02:29:25;13.30;;;6.00;;
3967;SDS011;9221;42.646;23.380;2023-06-22T02:31:50;10.90;;;6.00;;
3967;SDS011;9221;42.646;23.380;2023-06-22T02:34:16;11.60;;;6.47;;
3967;SDS011;9221;42.646;23.380;2023-06-22T02:36:46;10.67;;;6.17;;
3967;SDS011;9221;42.646;23.380;2023-06-22T02:39:24;11.17;;;5.77;;
3967;SDS011;9221;42.646;23.380;2023-06-22T02:41:50;12.47;;;6.23;;
3967;SDS011;9221;42.646;23.380;2023-06-22T02:44:19;16.50;;;6.80;;
3967;SDS011;9221;42.646;23.380;2023-06-22T02:46:45;11.87;;;6.23;;
3967;SDS011;9221;42.646;23.380;2023-06-22T02:49:11;11.80;;;6.37;;
3967;SDS011;9221;42.646;23.380;2023-06-22T02:51:45;12.93;;;6.60;;
3967;SDS011;9221;42.646;23.380;2023-06-22T02:54:11;13.90;;;6.87;;
3967;SDS011;9221;42.646;23.380;2023-06-22T02:56:37;15.40;;;7.27;;
3967;SDS011;9221;42.646;23.380;2023-06-22T02:59:02;10.67;;;6.00;;
3967;SDS011;9221;42.646;23.380;2023-06-22T03:01:28;12.10;;;6.37;;
3967;SDS011;9221;42.646;23.380;2023-06-22T03:03:55;13.10;;;6.87;;
3967;SDS011;9221;42.646;23.380;2023-06-22T03:06:21;12.03;;;6.30;;
3967;SDS011;9221;42.646;23.380;2023-06-22T03:08:54;11.00;;;5.77;;
3967;SDS011;9221;42.646;23.380;2023-06-22T03:11:23;16.53;;;6.70;;
3967;SDS011;9221;42.646;23.380;2023-06-22T03:13:49;19.23;;;6.43;;
3967;SDS011;9221;42.646;23.380;2023-06-22T03:16:17;9.53;;;5.83;;
3967;SDS011;9221;42.646;23.380;2023-06-22T03:18:42;11.80;;;5.80;;
3967;SDS011;9221;42.646;23.380;2023-06-22T03:21:08;12.57;;;5.77;;
3967;SDS011;9221;42.646;23.380;2023-06-22T03:23:33;12.47;;;6.10;;
3967;SDS011;9221;42.646;23.380;2023-06-22T03:25:58;11.13;;;6.00;;
3967;SDS011;9221;42.646;23.380;2023-06-22T03:28:24;13.80;;;6.13;;
3967;SDS011;9221;42.646;23.380;2023-06-22T03:30:49;12.33;;;6.17;;
3967;SDS011;9221;42.646;23.380;2023-06-22T03:33:14;13.87;;;6.27;;
3967;SDS011;9221;42.646;23.380;2023-06-22T03:35:40;11.10;;;7.00;;
3967;SDS011;9221;42.646;23.380;2023-06-22T03:38:05;15.57;;;6.00;;
3967;SDS011;9221;42.646;23.380;2023-06-22T03:40:30;14.43;;;6.17;;
3967;SDS011;9221;42.646;23.380;2023-06-22T03:42:56;12.23;;;6.50;;
3967;SDS011;9221;42.646;23.380;2023-06-22T03:45:21;16.27;;;7.53;;
3967;SDS011;9221;42.646;23.380;2023-06-22T03:47:46;13.60;;;7.07;;
3967;SDS011;9221;42.646;23.380;2023-06-22T03:50:12;19.70;;;7.17;;
3967;SDS011;9221;42.646;23.380;2023-06-22T03:52:38;19.17;;;6.50;;
3967;SDS011;9221;42.646;23.380;2023-06-22T03:55:04;13.93;;;7.27;;
3967;SDS011;9221;42.646;23.380;2023-06-22T03:57:31;12.67;;;6.30;;
3967;SDS011;9221;42.646;23.380;2023-06-22T03:59:56;11.77;;;6.80;;
3967;SDS011;9221;42.646;23.380;2023-06-22T04:02:22;13.10;;;7.00;;
3967;SDS011;9221;42.646;23.380;2023-06-22T04:04:48;12.13;;;6.77;;
3967;SDS011;9221;42.646;23.380;2023-06-22T04:07:13;16.07;;;7.30;;
3967;SDS011;9221;42.646;23.380;2023-06-22T04:09:38;13.17;;;7.07;;
3967;SDS011;9221;42.646;23.380;2023-06-22T04:12:04;10.70;;;6.03;;
3967;SDS011;9221;42.646;23.380;2023-06-22T04:14:30;14.13;;;7.70;;
3967;SDS011;9221;42.646;23.380;2023-06-22T04:16:55;18.37;;;7.80;;
3967;SDS011;9221;42.646;23.380;2023-06-22T04:19:21;19.90;;;8.37;;
3967;SDS011;9221;42.646;23.380;2023-06-22T04:21:46;13.90;;;7.80;;
3967;SDS011;9221;42.646;23.380;2023-06-22T04:24:13;16.40;;;7.80;;
3967;SDS011;9221;42.646;23.380;2023-06-22T04:26:39;21.07;;;8.90;;
3967;SDS011;9221;42.646;23.380;2023-06-22T04:29:06;20.03;;;9.23;;
3967;SDS011;9221;42.646;23.380;2023-06-22T04:31:33;21.60;;;9.57;;
3967;SDS011;9221;42.646;23.380;2023-06-22T04:34:01;16.40;;;8.00;;
3967;SDS011;9221;42.646;23.380;2023-06-22T04:36:37;17.77;;;8.20;;
3967;SDS011;9221;42.646;23.380;2023-06-22T04:39:09;19.50;;;8.77;;
3967;SDS011;9221;42.646;23.380;2023-06-22T04:41:39;30.73;;;10.40;;
3967;SDS011;9221;42.646;23.380;2023-06-22T04:44:09;22.50;;;10.87;;
3967;SDS011;9221;42.646;23.380;2023-06-22T04:46:36;14.70;;;8.27;;
3967;SDS011;9221;42.646;23.380;2023-06-22T04:49:09;23.23;;;8.20;;
3967;SDS011;9221;42.646;23.380;2023-06-22T04:51:41;21.40;;;9.60;;
3967;SDS011;9221;42.646;23.380;2023-06-22T04:54:07;22.00;;;8.57;;
3967;SDS011;9221;42.646;23.380;2023-06-22T04:56:33;15.60;;;8.10;;
3967;SDS011;9221;42.646;23.380;2023-06-22T04:58:59;28.53;;;10.73;;
3967;SDS011;9221;42.646;23.380;2023-06-22T05:01:25;17.53;;;8.17;;
3967;SDS011;9221;42.646;23.380;2023-06-22T05:03:50;19.60;;;7.00;;
3967;SDS011;9221;42.646;23.380;2023-06-22T05:06:23;19.33;;;7.63;;
3967;SDS011;9221;42.646;23.380;2023-06-22T05:08:51;16.27;;;8.37;;
3967;SDS011;9221;42.646;23.380;2023-06-22T05:11:22;22.10;;;9.07;;
3967;SDS011;9221;42.646;23.380;2023-06-22T05:13:48;22.90;;;10.10;;
3967;SDS011;9221;42.646;23.380;2023-06-22T05:16:13;17.97;;;8.23;;
3967;SDS011;9221;42.646;23.380;2023-06-22T05:18:39;20.03;;;8.70;;
3967;SDS011;9221;42.646;23.380;2023-06-22T05:21:04;21.03;;;9.47;;
3967;SDS011;9221;42.646;23.380;2023-06-22T05:23:30;17.93;;;8.37;;
3967;SDS011;9221;42.646;23.380;2023-06-22T05:25:55;16.03;;;8.40;;
3967;SDS011;9221;42.646;23.380;2023-06-22T05:28:22;22.83;;;8.93;;
3967;SDS011;9221;42.646;23.380;2023-06-22T05:30:48;20.57;;;8.83;;
3967;SDS011;9221;42.646;23.380;2023-06-22T05:33:13;21.17;;;8.70;;
3967;SDS011;9221;42.646;23.380;2023-06-22T05:35:38;22.90;;;8.93;;
3967;SDS011;9221;42.646;23.380;2023-06-22T05:38:04;19.73;;;8.70;;
3967;SDS011;9221;42.646;23.380;2023-06-22T05:40:29;18.53;;;9.13;;
3967;SDS011;9221;42.646;23.380;2023-06-22T05:42:54;18.97;;;9.80;;
3967;SDS011;9221;42.646;23.380;2023-06-22T05:45:20;21.53;;;9.63;;
3967;SDS011;9221;42.646;23.380;2023-06-22T05:47:45;22.10;;;8.80;;
3967;SDS011;9221;42.646;23.380;2023-06-22T05:50:11;16.73;;;9.07;;
3967;SDS011;9221;42.646;23.380;2023-06-22T05:52:36;22.37;;;8.67;;
3967;SDS011;9221;42.646;23.380;2023-06-22T05:55:02;37.77;;;9.60;;
3967;SDS011;9221;42.646;23.380;2023-06-22T05:57:27;21.13;;;10.60;;
3967;SDS011;9221;42.646;23.380;2023-06-22T05:59:53;20.37;;;10.73;;
3967;SDS011;9221;42.646;23.380;2023-06-22T06:02:19;21.47;;;9.70;;
3967;SDS011;9221;42.646;23.380;2023-06-22T06:04:44;23.17;;;11.47;;
3967;SDS011;9221;42.646;23.380;2023-06-22T06:07:10;22.10;;;10.03;;
3967;SDS011;9221;42.646;23.380;2023-06-22T06:09:35;18.37;;;10.10;;
3967;SDS011;9221;42.646;23.380;2023-06-22T06:12:00;17.50;;;8.77;;
3967;SDS011;9221;42.646;23.380;2023-06-22T06:14:28;20.50;;;8.50;;
3967;SDS011;9221;42.646;23.380;2023-06-22T06:16:53;22.10;;;8.97;;
3967;SDS011;9221;42.646;23.380;2023-06-22T06:19:19;19.97;;;9.60;;
3967;SDS011;9221;42.646;23.380;2023-06-22T06:21:44;19.97;;;8.97;;
3967;SDS011;9221;42.646;23.380;2023-06-22T06:24:11;24.30;;;10.20;;
3967;SDS011;9221;42.646;23.380;2023-06-22T06:26:36;39.60;;;11.10;;
3967;SDS011;9221;42.646;23.380;2023-06-22T06:29:02;24.73;;;9.13;;
3967;SDS011;9221;42.646;23.380;2023-06-22T06:31:27;23.63;;;9.40;;
3967;SDS011;9221;42.646;23.380;2023-06-22T06:33:53;16.37;;;9.00;;
3967;SDS011;9221;42.646;23.380;2023-06-22T06:36:19;19.93;;;9.30;;
3967;SDS011;9221;42.646;23.380;2023-06-22T06:38:45;19.87;;;9.47;;
3967;SDS011;9221;42.646;23.380;2023-06-22T06:41:12;26.50;;;8.67;;
3967;SDS011;9221;42.646;23.380;2023-06-22T06:43:38;19.73;;;9.00;;
3967;SDS011;9221;42.646;23.380;2023-06-22T06:46:04;20.90;;;10.60;;
3967;SDS011;9221;42.646;23.380;2023-06-22T06:48:29;19.77;;;9.70;;
3967;SDS011;9221;42.646;23.380;2023-06-22T06:50:54;19.50;;;8.90;;
3967;SDS011;9221;42.646;23.380;2023-06-22T06:53:20;14.57;;;7.77;;
3967;SDS011;9221;42.646;23.380;2023-06-22T06:55:45;20.77;;;7.73;;
3967;SDS011;9221;42.646;23.380;2023-06-22T06:58:11;15.83;;;7.77;;
3967;SDS011;9221;42.646;23.380;2023-06-22T07:00:38;16.03;;;8.17;;
3967;SDS011;9221;42.646;23.380;2023-06-22T07:03:04;15.30;;;8.10;;
3967;SDS011;9221;42.646;23.380;2023-06-22T07:05:29;33.13;;;8.63;;
3967;SDS011;9221;42.646;23.380;2023-06-22T07:07:55;12.97;;;7.80;;
3967;SDS011;9221;42.646;23.380;2023-06-22T07:10:20;12.33;;;8.00;;
3967;SDS011;9221;42.646;23.380;2023-06-22T07:12:46;11.40;;;8.10;;
3967;SDS011;9221;42.646;23.380;2023-06-22T07:15:11;17.17;;;8.07;;
3967;SDS011;9221;42.646;23.380;2023-06-22T07:17:39;22.33;;;9.33;;
3967;SDS011;9221;42.646;23.380;2023-06-22T07:20:08;23.70;;;8.90;;
3967;SDS011;9221;42.646;23.380;2023-06-22T07:22:36;17.50;;;8.53;;
3967;SDS011;9221;42.646;23.380;2023-06-22T07:25:01;50.60;;;9.30;;
3967;SDS011;9221;42.646;23.380;2023-06-22T07:27:33;16.87;;;8.00;;
3967;SDS011;9221;42.646;23.380;2023-06-22T07:30:01;21.53;;;9.80;;
3967;SDS011;9221;42.646;23.380;2023-06-22T07:32:27;13.33;;;8.57;;
3967;SDS011;9221;42.646;23.380;2023-06-22T07:34:53;18.10;;;8.60;;
3967;SDS011;9221;42.646;23.380;2023-06-22T07:37:19;24.90;;;9.37;;
3967;SDS011;9221;42.646;23.380;2023-06-22T07:39:44;15.10;;;8.90;;
3967;SDS011;9221;42.646;23.380;2023-06-22T07:42:10;19.40;;;9.73;;
3967;SDS011;9221;42.646;23.380;2023-06-22T07:44:35;15.67;;;9.13;;
3967;SDS011;9221;42.646;23.380;2023-06-22T07:47:00;20.47;;;10.00;;
3967;SDS011;9221;42.646;23.380;2023-06-22T07:49:27;17.97;;;9.30;;
3967;SDS011;9221;42.646;23.380;2023-06-22T07:51:53;22.27;;;9.77;;
3967;SDS011;9221;42.646;23.380;2023-06-22T07:54:18;23.43;;;9.30;;
3967;SDS011;9221;42.646;23.380;2023-06-22T07:56:44;23.07;;;8.83;;
3967;SDS011;9221;42.646;23.380;2023-06-22T07:59:11;14.03;;;8.20;;
3967;SDS011;9221;42.646;23.380;2023-06-22T08:01:36;20.93;;;8.40;;
3967;SDS011;9221;42.646;23.380;2023-06-22T08:04:02;12.90;;;7.50;;
3967;SDS011;9221;42.646;23.380;2023-06-22T08:06:29;15.47;;;8.50;;
3967;SDS011;9221;42.646;23.380;2023-06-22T08:08:55;18.03;;;8.60;;
3967;SDS011;9221;42.646;23.380;2023-06-22T08:11:22;22.13;;;10.10;;
3967;SDS011;9221;42.646;23.380;2023-06-22T08:13:48;16.60;;;9.10;;
3967;SDS011;9221;42.646;23.380;2023-06-22T08:16:14;17.47;;;8.97;;
3967;SDS011;9221;42.646;23.380;2023-06-22T08:18:40;21.67;;;8.80;;
3967;SDS011;9221;42.646;23.380;2023-06-22T08:21:05;16.30;;;9.13;;
3967;SDS011;9221;42.646;23.380;2023-06-22T08:23:30;22.53;;;9.10;;
3967;SDS011;9221;42.646;23.380;2023-06-22T08:25:56;22.80;;;9.80;;
3967;SDS011;9221;42.646;23.380;2023-06-22T08:28:21;13.97;;;7.73;;
3967;SDS011;9221;42.646;23.380;2023-06-22T08:30:46;11.63;;;7.40;;
3967;SDS011;9221;42.646;23.380;2023-06-22T08:33:12;18.40;;;8.63;;
3967;SDS011;9221;42.646;23.380;2023-06-22T08:35:37;26.03;;;9.20;;
3967;SDS011;9221;42.646;23.380;2023-06-22T08:38:03;15.93;;;7.83;;
3967;SDS011;9221;42.646;23.380;2023-06-22T08:40:29;15.70;;;8.90;;
3967;SDS011;9221;42.646;23.380;2023-06-22T08:42:54;13.57;;;8.77;;
3967;SDS011;9221;42.646;23.380;2023-06-22T08:45:20;23.63;;;9.00;;
3967;SDS011;9221;42.646;23.380;2023-06-22T08:47:45;16.50;;;8.87;;
3967;SDS011;9221;42.646;23.380;2023-06-22T08:50:11;14.73;;;8.27;;
3967;SDS011;9221;42.646;23.380;2023-06-22T08:52:37;19.80;;;8.27;;
3967;SDS011;9221;42.646;23.380;2023-06-22T08:55:06;19.93;;;8.30;;
3967;SDS011;9221;42.646;23.380;2023-06-22T08:57:32;19.70;;;7.80;;
3967;SDS011;9221;42.646;23.380;2023-06-22T08:59:57;13.03;;;8.00;;
3967;SDS011;9221;42.646;23.380;2023-06-22T09:02:24;18.30;;;8.63;;
3967;SDS011;9221;42.646;23.380;2023-06-22T09:04:55;20.57;;;8.20;;
3967;SDS011;9221;42.646;23.380;2023-06-22T09:07:22;16.13;;;8.70;;
3967;SDS011;9221;42.646;23.380;2023-06-22T09:09:49;15.80;;;8.80;;
3967;SDS011;9221;42.646;23.380;2023-06-22T09:12:15;24.17;;;8.37;;
3967;SDS011;9221;42.646;23.380;2023-06-22T09:14:41;18.43;;;7.50;;
3967;SDS011;9221;42.646;23.380;2023-06-22T09:17:06;15.13;;;7.40;;
3967;SDS011;9221;42.646;23.380;2023-06-22T09:19:32;24.50;;;8.60;;
3967;SDS011;9221;42.646;23.380;2023-06-22T09:21:58;12.53;;;8.00;;
3967;SDS011;9221;42.646;23.380;2023-06-22T09:24:23;16.03;;;8.07;;
3967;SDS011;9221;42.646;23.380;2023-06-22T09:26:48;18.40;;;7.13;;
3967;SDS011;9221;42.646;23.380;2023-06-22T09:29:15;9.20;;;6.07;;
3967;SDS011;9221;42.646;23.380;2023-06-22T09:31:40;15.17;;;7.20;;
3967;SDS011;9221;42.646;23.380;2023-06-22T09:34:06;14.87;;;7.27;;
3967;SDS011;9221;42.646;23.380;2023-06-22T09:36:31;15.13;;;7.73;;
3967;SDS011;9221;42.646;23.380;2023-06-22T09:38:56;13.60;;;6.93;;
3967;SDS011;9221;42.646;23.380;2023-06-22T09:41:23;10.90;;;7.47;;
3967;SDS011;9221;42.646;23.380;2023-06-22T09:43:49;21.87;;;7.53;;
3967;SDS011;9221;42.646;23.380;2023-06-22T09:46:15;13.23;;;7.20;;
3967;SDS011;9221;42.646;23.380;2023-06-22T09:48:41;9.70;;;6.00;;
3967;SDS011;9221;42.646;23.380;2023-06-22T09:51:06;13.90;;;6.70;;
3967;SDS011;9221;42.646;23.380;2023-06-22T09:53:31;9.60;;;6.53;;
3967;SDS011;9221;42.646;23.380;2023-06-22T09:55:57;14.03;;;5.80;;
3967;SDS011;9221;42.646;23.380;2023-06-22T09:58:22;12.57;;;6.60;;
3967;SDS011;9221;42.646;23.380;2023-06-22T10:00:49;11.20;;;6.30;;
3967;SDS011;9221;42.646;23.380;2023-06-22T10:03:15;13.47;;;6.50;;
3967;SDS011;9221;42.646;23.380;2023-06-22T10:05:41;12.57;;;6.73;;
3967;SDS011;9221;42.646;23.380;2023-06-22T10:08:06;13.98;;;6.88;;
3967;SDS011;9221;42.646;23.380;2023-06-22T10:10:33;13.23;;;7.57;;
3967;SDS011;9221;42.646;23.380;2023-06-22T10:13:07;13.53;;;7.00;;
3967;SDS011;9221;42.646;23.380;2023-06-22T10:15:37;11.13;;;6.63;;
3967;SDS011;9221;42.646;23.380;2023-06-22T10:18:03;8.90;;;6.32;;
3967;SDS011;9221;42.646;23.380;2023-06-22T10:20:29;10.30;;;6.90;;
3967;SDS011;9221;42.646;23.380;2023-06-22T10:22:54;8.95;;;6.72;;
3967;SDS011;9221;42.646;23.380;2023-06-22T10:25:19;18.23;;;7.40;;
3967;SDS011;9221;42.646;23.380;2023-06-22T10:27:46;9.20;;;7.03;;
3967;SDS011;9221;42.646;23.380;2023-06-22T10:30:11;11.52;;;7.32;;
3967;SDS011;9221;42.646;23.380;2023-06-22T10:32:38;9.25;;;5.93;;
3967;SDS011;9221;42.646;23.380;2023-06-22T10:35:04;8.65;;;6.38;;
3967;SDS011;9221;42.646;23.380;2023-06-22T10:37:30;13.07;;;6.35;;
3967;SDS011;9221;42.646;23.380;2023-06-22T10:39:55;13.02;;;6.20;;
3967;SDS011;9221;42.646;23.380;2023-06-22T10:42:21;8.20;;;5.40;;
3967;SDS011;9221;42.646;23.380;2023-06-22T10:44:46;8.18;;;5.38;;
3967;SDS011;9221;42.646;23.380;2023-06-22T10:47:11;5.80;;;4.90;;
3967;SDS011;9221;42.646;23.380;2023-06-22T10:49:38;8.65;;;5.35;;
3967;SDS011;9221;42.646;23.380;2023-06-22T10:52:04;7.70;;;5.25;;
3967;SDS011;9221;42.646;23.380;2023-06-22T10:54:30;11.27;;;6.00;;
3967;SDS011;9221;42.646;23.380;2023-06-22T10:56:58;13.40;;;6.28;;
3967;SDS011;9221;42.646;23.380;2023-06-22T10:59:24;8.02;;;5.75;;
3967;SDS011;9221;42.646;23.380;2023-06-22T11:01:51;8.63;;;5.10;;
3967;SDS011;9221;42.646;23.380;2023-06-22T11:04:16;6.20;;;4.95;;
3967;SDS011;9221;42.646;23.380;2023-06-22T11:06:42;9.07;;;5.38;;
3967;SDS011;9221;42.646;23.380;2023-06-22T11:09:08;9.20;;;5.45;;
3967;SDS011;9221;42.646;23.380;2023-06-22T11:11:33;10.98;;;5.32;;
3967;SDS011;9221;42.646;23.380;2023-06-22T11:13:59;11.73;;;5.72;;
3967;SDS011;9221;42.646;23.380;2023-06-22T11:16:25;8.73;;;5.70;;
3967;SDS011;9221;42.646;23.380;2023-06-22T11:18:50;14.32;;;6.72;;
3967;SDS011;9221;42.646;23.380;2023-06-22T11:21:15;5.90;;;4.85;;
3967;SDS011;9221;42.646;23.380;2023-06-22T11:23:41;7.65;;;5.38;;
3967;SDS011;9221;42.646;23.380;2023-06-22T11:26:07;8.98;;;5.00;;
3967;SDS011;9221;42.646;23.380;2023-06-22T11:28:33;10.85;;;5.00;;
3967;SDS011;9221;42.646;23.380;2023-06-22T11:30:58;8.00;;;4.68;;
3967;SDS011;9221;42.646;23.380;2023-06-22T11:33:24;14.32;;;5.20;;
3967;SDS011;9221;42.646;23.380;2023-06-22T11:35:49;8.07;;;5.38;;
3967;SDS011;9221;42.646;23.380;2023-06-22T11:38:14;11.90;;;5.30;;
3967;SDS011;9221;42.646;23.380;2023-06-22T11:40:40;6.78;;;4.82;;
3967;SDS011;9221;42.646;23.380;2023-06-22T11:43:05;11.05;;;4.97;;
3967;SDS011;9221;42.646;23.380;2023-06-22T11:45:31;6.45;;;4.47;;
3967;SDS011;9221;42.646;23.380;2023-06-22T11:47:56;5.88;;;4.65;;
3967;SDS011;9221;42.646;23.380;2023-06-22T11:50:21;10.18;;;4.75;;
3967;SDS011;9221;42.646;23.380;2023-06-22T11:52:47;6.35;;;5.15;;
3967;SDS011;9221;42.646;23.380;2023-06-22T11:55:13;6.32;;;4.80;;
3967;SDS011;9221;42.646;23.380;2023-06-22T11:57:38;6.93;;;5.18;;
3967;SDS011;9221;42.646;23.380;2023-06-22T12:00:18;6.70;;;4.80;;
3967;SDS011;9221;42.646;23.380;2023-06-22T12:02:44;7.65;;;4.88;;
3967;SDS011;9221;42.646;23.380;2023-06-22T12:05:12;6.45;;;5.28;;
3967;SDS011;9221;42.646;23.380;2023-06-22T12:07:37;9.45;;;5.57;;
3967;SDS011;9221;42.646;23.380;2023-06-22T12:10:03;17.15;;;5.57;;
3967;SDS011;9221;42.646;23.380;2023-06-22T12:12:29;8.13;;;5.00;;
3967;SDS011;9221;42.646;23.380;2023-06-22T12:14:54;8.02;;;5.28;;
3967;SDS011;9221;42.646;23.380;2023-06-22T12:17:20;10.48;;;5.68;;
3967;SDS011;9221;42.646;23.380;2023-06-22T12:19:45;13.73;;;5.72;;
3967;SDS011;9221;42.646;23.380;2023-06-22T12:22:11;11.93;;;6.18;;
3967;SDS011;9221;42.646;23.380;2023-06-22T12:24:36;15.40;;;5.97;;
3967;SDS011;9221;42.646;23.380;2023-06-22T12:27:02;11.80;;;6.07;;
3967;SDS011;9221;42.646;23.380;2023-06-22T12:29:28;11.57;;;6.35;;
3967;SDS011;9221;42.646;23.380;2023-06-22T12:31:53;11.17;;;6.03;;
3967;SDS011;9221;42.646;23.380;2023-06-22T12:34:19;11.60;;;6.07;;
3967;SDS011;9221;42.646;23.380;2023-06-22T12:36:44;21.50;;;6.50;;
3967;SDS011;9221;42.646;23.380;2023-06-22T12:39:11;12.70;;;5.73;;
3967;SDS011;9221;42.646;23.380;2023-06-22T12:41:36;16.30;;;6.30;;
3967;SDS011;9221;42.646;23.380;2023-06-22T12:44:02;18.87;;;6.17;;
3967;SDS011;9221;42.646;23.380;2023-06-22T12:46:27;21.20;;;8.47;;
3967;SDS011;9221;42.646;23.380;2023-06-22T12:48:52;21.83;;;7.97;;
3967;SDS011;9221;42.646;23.380;2023-06-22T12:51:21;30.70;;;8.00;;
3967;SDS011;9221;42.646;23.380;2023-06-22T12:53:47;15.53;;;7.67;;
3967;SDS011;9221;42.646;23.380;2023-06-22T12:56:13;18.53;;;6.53;;
3967;SDS011;9221;42.646;23.380;2023-06-22T12:58:38;18.27;;;6.90;;
3967;SDS011;9221;42.646;23.380;2023-06-22T13:01:03;23.10;;;9.37;;
3967;SDS011;9221;42.646;23.380;2023-06-22T13:03:29;17.40;;;7.43;;
3967;SDS011;9221;42.646;23.380;2023-06-22T13:05:54;21.97;;;7.50;;
3967;SDS011;9221;42.646;23.380;2023-06-22T13:08:20;14.30;;;8.57;;
3967;SDS011;9221;42.646;23.380;2023-06-22T13:10:45;23.50;;;8.07;;
3967;SDS011;9221;42.646;23.380;2023-06-22T13:13:11;14.30;;;7.80;;
3967;SDS011;9221;42.646;23.380;2023-06-22T13:15:36;14.27;;;6.90;;
3967;SDS011;9221;42.646;23.380;2023-06-22T13:18:01;15.13;;;6.90;;
3967;SDS011;9221;42.646;23.380;2023-06-22T13:20:28;16.57;;;7.90;;
3967;SDS011;9221;42.646;23.380;2023-06-22T13:22:54;15.73;;;8.20;;
3967;SDS011;9221;42.646;23.380;2023-06-22T13:25:21;15.23;;;8.10;;
3967;SDS011;9221;42.646;23.380;2023-06-22T13:27:48;14.33;;;7.30;;
3967;SDS011;9221;42.646;23.380;2023-06-22T13:30:14;14.60;;;7.53;;
3967;SDS011;9221;42.646;23.380;2023-06-22T13:32:40;14.77;;;7.93;;
3967;SDS011;9221;42.646;23.380;2023-06-22T13:35:09;19.40;;;7.17;;
3967;SDS011;9221;42.646;23.380;2023-06-22T13:37:35;12.20;;;8.23;;
3967;SDS011;9221;42.646;23.380;2023-06-22T13:40:01;13.13;;;7.30;;
3967;SDS011;9221;42.646;23.380;2023-06-22T13:42:28;13.53;;;7.40;;
3967;SDS011;9221;42.646;23.380;2023-06-22T13:44:54;17.20;;;7.33;;
3967;SDS011;9221;42.646;23.380;2023-06-22T13:47:19;12.60;;;7.17;;
3967;SDS011;9221;42.646;23.380;2023-06-22T13:49:44;12.10;;;7.73;;
3967;SDS011;9221;42.646;23.380;2023-06-22T13:52:10;11.87;;;6.50;;
3967;SDS011;9221;42.646;23.380;2023-06-22T13:54:37;10.97;;;6.73;;
3967;SDS011;9221;42.646;23.380;2023-06-22T13:57:03;17.70;;;6.57;;
3967;SDS011;9221;42.646;23.380;2023-06-22T13:59:29;11.20;;;6.70;;
3967;SDS011;9221;42.646;23.380;2023-06-22T14:01:54;13.20;;;6.10;;
3967;SDS011;9221;42.646;23.380;2023-06-22T14:04:19;11.37;;;5.73;;
3967;SDS011;9221;42.646;23.380;2023-06-22T14:06:46;10.43;;;6.00;;
3967;SDS011;9221;42.646;23.380;2023-06-22T14:09:11;14.07;;;7.13;;
3967;SDS011;9221;42.646;23.380;2023-06-22T14:11:37;15.30;;;7.00;;
3967;SDS011;9221;42.646;23.380;2023-06-22T14:14:02;10.80;;;6.40;;
3967;SDS011;9221;42.646;23.380;2023-06-22T14:16:28;26.37;;;7.83;;
3967;SDS011;9221;42.646;23.380;2023-06-22T14:18:53;11.67;;;6.70;;
3967;SDS011;9221;42.646;23.380;2023-06-22T14:21:19;20.17;;;7.30;;
3967;SDS011;9221;42.646;23.380;2023-06-22T14:23:44;12.47;;;7.27;;
3967;SDS011;9221;42.646;23.380;2023-06-22T14:26:14;18.93;;;7.17;;
3967;SDS011;9221;42.646;23.380;2023-06-22T14:28:46;12.10;;;6.97;;
3967;SDS011;9221;42.646;23.380;2023-06-22T14:31:16;19.80;;;7.77;;
3967;SDS011;9221;42.646;23.380;2023-06-22T14:33:45;23.37;;;8.20;;
3967;SDS011;9221;42.646;23.380;2023-06-22T14:36:12;11.33;;;6.67;;
3967;SDS011;9221;42.646;23.380;2023-06-22T14:38:37;13.97;;;8.20;;
3967;SDS011;9221;42.646;23.380;2023-06-22T14:41:03;18.13;;;7.87;;
3967;SDS011;9221;42.646;23.380;2023-06-22T14:43:28;19.00;;;9.03;;
3967;SDS011;9221;42.646;23.380;2023-06-22T14:45:54;18.10;;;7.90;;
3967;SDS011;9221;42.646;23.380;2023-06-22T14:48:19;12.83;;;8.23;;